Map

Track Data

SID SEASON NUMBER BASIN SUBBASIN NAME ISO_TIME NATURE LAT LON WMO_WIND WMO_PRES WMO_AGENCY TRACK_TYPE DIST2LAND LANDFALL IFLAG USA_AGENCY USA_ATCF_ID USA_LAT USA_LON USA_RECORD USA_STATUS USA_WIND USA_PRES USA_SSHS USA_R34_NE USA_R34_SE USA_R34_SW USA_R34_NW USA_R50_NE USA_R50_SE USA_R50_SW USA_R50_NW USA_R64_NE USA_R64_SE USA_R64_SW USA_R64_NW USA_POCI USA_ROCI USA_RMW USA_EYE TOKYO_LAT TOKYO_LON TOKYO_GRADE TOKYO_WIND TOKYO_PRES TOKYO_R50_DIR TOKYO_R50_LONG TOKYO_R50_SHORT TOKYO_R30_DIR TOKYO_R30_LONG TOKYO_R30_SHORT TOKYO_LAND CMA_LAT CMA_LON CMA_CAT CMA_WIND CMA_PRES HKO_LAT HKO_LON HKO_CAT HKO_WIND HKO_PRES NEWDELHI_LAT NEWDELHI_LON NEWDELHI_GRADE NEWDELHI_WIND NEWDELHI_PRES NEWDELHI_CI NEWDELHI_DP NEWDELHI_POCI REUNION_LAT REUNION_LON REUNION_TYPE REUNION_WIND REUNION_PRES REUNION_TNUM REUNION_CI REUNION_RMW REUNION_R34_NE REUNION_R34_SE REUNION_R34_SW REUNION_R34_NW REUNION_R50_NE REUNION_R50_SE REUNION_R50_SW REUNION_R50_NW REUNION_R64_NE REUNION_R64_SE REUNION_R64_SW REUNION_R64_NW BOM_LAT BOM_LON BOM_TYPE BOM_WIND BOM_PRES BOM_TNUM BOM_CI BOM_RMW BOM_R34_NE BOM_R34_SE BOM_R34_SW BOM_R34_NW BOM_R50_NE BOM_R50_SE BOM_R50_SW BOM_R50_NW BOM_R64_NE BOM_R64_SE BOM_R64_SW BOM_R64_NW BOM_ROCI BOM_POCI BOM_EYE BOM_POS_METHOD BOM_PRES_METHOD NADI_LAT NADI_LON NADI_CAT NADI_WIND NADI_PRES WELLINGTON_LAT WELLINGTON_LON WELLINGTON_WIND WELLINGTON_PRES DS824_LAT DS824_LON DS824_STAGE DS824_WIND DS824_PRES TD9636_LAT TD9636_LON TD9636_STAGE TD9636_WIND TD9636_PRES TD9635_LAT TD9635_LON TD9635_WIND TD9635_PRES TD9635_ROCI NEUMANN_LAT NEUMANN_LON NEUMANN_CLASS NEUMANN_WIND NEUMANN_PRES MLC_LAT MLC_LON MLC_CLASS MLC_WIND MLC_PRES USA_GUST BOM_GUST BOM_GUST_PER REUNION_GUST REUNION_GUST_PER USA_SEAHGT USA_SEARAD_NE USA_SEARAD_SE USA_SEARAD_SW USA_SEARAD_NW STORM_SPEED STORM_DIR
2019364S19060 2020 5 SI MM CALVINIA 2019-12-29 12:00:00 NR -19.4000 59.8000 PROVISIONAL 232 186 O_____________ tcvitals SI052019 -19.4000 59.8000 35 997 0 150 126 55 1003 200 55 11 215
2019364S19060 2020 5 SI MM CALVINIA 2019-12-29 15:00:00 NR -19.8302 59.4804 PROVISIONAL 186 146 P_____________ SI052019 -19.8302 59.4804 35 998 0 102 153 90 1004 190 47 10 215
2019364S19060 2020 5 SI MM CALVINIA 2019-12-29 18:00:00 NR -20.2000 59.2000 PROVISIONAL 146 125 O_____________ tcvitals SI052019 -20.2000 59.2000 35 999 0 55 180 126 45 1005 180 40 8 216
2019364S19060 2020 5 SI MM CALVINIA 2019-12-29 21:00:00 NR -20.4599 58.9849 PROVISIONAL 127 109 P_____________ SI052019 -20.4599 58.9849 35 997 0 55 180 126 42 1003 182 37 6 223
2019364S19060 2020 5 SI MM CALVINIA 2019-12-30 00:00:00 NR -20.6000 58.8000 PROVISIONAL 109 89 O_____________ tcvitals SI052019 -20.6000 58.8000 35 996 0 55 180 126 40 1002 185 35 4 247
2019364S19060 2020 5 SI MM CALVINIA 2019-12-30 03:00:00 NR -20.6225 58.5849 PROVISIONAL 89 70 P_____________ SI052019 -20.6225 58.5849 37 996 0 117 145 115 42 1003 185 35 4 270
2019364S19060 2020 5 SI MM CALVINIA 2019-12-30 06:00:00 NR -20.6000 58.4000 PROVISIONAL 70 61 O_____________ tcvitals SI052019 -20.6000 58.4000 39 996 0 180 110 105 45 1005 185 35 3 268
2019364S19060 2020 5 SI MM CALVINIA 2019-12-30 09:00:00 NR -20.6350 58.2700 PROVISIONAL 61 53 P_____________ SI052019 -20.6350 58.2700 45 992 0 127 97 92 57 1004 187 35 2 241
2019364S19060 2020 5 SI MM CALVINIA 2019-12-30 12:00:00 NR -20.7000 58.2000 PROVISIONAL 56 56 O_____________ tcvitals SI052019 -20.7000 58.2000 51 989 0 75 85 80 70 1003 190 35 2 204
2019364S19060 2020 5 SI MM CALVINIA 2019-12-30 15:00:00 NR -20.7925 58.2000 PROVISIONAL 61 61 P_____________ SI052019 -20.7925 58.2000 51 988 0 75 85 80 70 1003 210 24 2 172
2019364S19060 2020 5 SI MM CALVINIA 2019-12-30 18:00:00 NR -20.9000 58.2000 PROVISIONAL 68 61 O_____________ tcvitals SI052019 -20.9000 58.2000 51 988 0 75 85 80 70 1003 230 14 2 211
2019364S19060 2020 5 SI MM CALVINIA 2019-12-30 21:00:00 NR -20.9715 58.0797 PROVISIONAL 69 64 P_____________ SI052019 -20.9700 58.0702 55 985 0 75 97 80 70 1003 230 14 3 223
2019364S19060 2020 5 SI MM CALVINIA 2019-12-31 00:00:00 NR -21.1000 58.0000 PROVISIONAL 73 73 O_____________ tcvitals SI052019 -21.1000 58.0000 60 983 0 75 110 80 70 1004 230 14 4 177
2019364S19060 2020 5 SI MM CALVINIA 2019-12-31 03:00:00 NR -21.3401 58.1033 PROVISIONAL 98 98 P_____________ SI052019 -21.3551 58.1847 65 980 1 85 105 80 75 1004 225 12 6 156
2019364S19060 2020 5 SI MM CALVINIA 2019-12-31 06:00:00 NR -21.6797 58.2720 PROVISIONAL 147 147 O_____________ tcvitals SI052019 -21.7000 58.4000 70 978 1 95 100 80 80 1004 220 10 8 162
2019364S19060 2020 5 SI MM CALVINIA 2019-12-31 09:00:00 NR -22.0604 58.3508 PROVISIONAL 193 193 P_____________ SI052019 -22.0473 58.3636 70 976 1 87 87 62 65 1004 205 12 9 166
2019364S19060 2020 5 SI MM CALVINIA 2019-12-31 12:00:00 NR -22.5430 58.5066 PROVISIONAL 238 238 O_____________ tcvitals SI052019 -22.5000 58.4000 70 975 1 80 75 45 50 1004 190 14 12 156
2019364S19060 2020 5 SI MM CALVINIA 2019-12-31 15:00:00 NR -23.1314 58.8607 PROVISIONAL 315 315 P_____________ SI052019 -23.1053 58.7894 70 975 1 100 100 70 65 1004 190 13 15 150
2019364S19060 2020 5 SI MM CALVINIA 2019-12-31 18:00:00 NR -23.8000 59.3000 PROVISIONAL 404 404 O_____________ tcvitals SI052019 -23.8000 59.3000 70 976 1 120 126 95 80 1004 190 12 16 149
2019364S19060 2020 5 SI MM CALVINIA 2019-12-31 21:00:00 NR -24.4669 59.7295 PROVISIONAL 492 492 P_____________ SI052019 -24.4700 59.7376 70 974 1 123 128 97 85 1003 192 12 16 153
2019364S19060 2020 5 SI MM CALVINIA 2020-01-01 00:00:00 NR -25.2000 60.1000 PROVISIONAL 580 580 O_____________ tcvitals SI052019 -25.2000 60.1000 70 973 1 126 130 100 90 1002 195 12 16 161
2019364S19060 2020 5 SI MM CALVINIA 2020-01-01 03:00:00 NR -26.0014 60.3252 PROVISIONAL 669 669 P_____________ SI052019 -25.9898 60.3163 65 974 1 123 130 100 87 1002 197 12 17 168
2019364S19060 2020 5 SI MM CALVINIA 2020-01-01 06:00:00 NR -26.9000 60.5000 PROVISIONAL 769 769 O_____________ tcvitals SI052019 -26.9000 60.5000 60 976 0 120 130 100 85 1002 200 12 21 169
2019364S19060 2020 5 SI MM CALVINIA 2020-01-01 09:00:00 NR -28.0150 60.7772 PROVISIONAL 894 894 P_____________ SI052019 -28.0150 60.7772 57 978 0 132 130 105 92 1002 200 26 23 166
2019364S19060 2020 5 SI MM CALVINIA 2020-01-01 12:00:00 NR -29.1000 61.1000 PROVISIONAL 1020 1020 O_____________ tcvitals SI052019 -29.1000 61.1000 54 980 0 145 130 110 100 1002 200 40 20 163
2019364S19060 2020 5 SI MM CALVINIA 2020-01-01 15:00:00 NR -29.9326 61.4446 PROVISIONAL 1112 1112 P_____________ SI052019 -29.9326 61.4446 54 980 0 172 172 125 105 1003 215 40 16 158
2019364S19060 2020 5 SI MM CALVINIA 2020-01-01 18:00:00 NR -30.6000 61.8000 PROVISIONAL 1198 O_____________ tcvitals SI052019 -30.6000 61.8000 54 980 0 200 215 140 110 1004 230 40 15 155

About IBTrACS Database

This database is a web-friendly format of International Best Track Archive for Climate Stewardship (IBTrACS), a global best track data archive curated by NOAA dating back to 1842.

Updated: 2021-10-08